sensor_id;sensor_type;location;lat;lon;timestamp;P1;durP1;ratioP1;P2;durP2;ratioP2
32319;SDS011;19080;51.750;5.888;2022-11-15T00:00:44;21.45;;;15.27;;
32319;SDS011;19080;51.750;5.888;2022-11-15T00:03:29;23.38;;;15.38;;
32319;SDS011;19080;51.750;5.888;2022-11-15T00:06:15;23.08;;;16.33;;
32319;SDS011;19080;51.750;5.888;2022-11-15T00:09:00;21.52;;;15.20;;
32319;SDS011;19080;51.750;5.888;2022-11-15T00:11:45;21.48;;;15.75;;
32319;SDS011;19080;51.750;5.888;2022-11-15T00:14:30;25.02;;;16.83;;
32319;SDS011;19080;51.750;5.888;2022-11-15T00:17:15;27.85;;;17.20;;
32319;SDS011;19080;51.750;5.888;2022-11-15T00:20:00;23.33;;;15.95;;
32319;SDS011;19080;51.750;5.888;2022-11-15T00:22:45;22.00;;;15.10;;
32319;SDS011;19080;51.750;5.888;2022-11-15T00:25:30;20.75;;;15.07;;
32319;SDS011;19080;51.750;5.888;2022-11-15T00:28:16;20.63;;;15.50;;
32319;SDS011;19080;51.750;5.888;2022-11-15T00:31:04;25.77;;;15.98;;
32319;SDS011;19080;51.750;5.888;2022-11-15T00:33:50;23.58;;;16.02;;
32319;SDS011;19080;51.750;5.888;2022-11-15T00:36:35;27.75;;;17.80;;
32319;SDS011;19080;51.750;5.888;2022-11-15T00:39:20;23.67;;;15.88;;
32319;SDS011;19080;51.750;5.888;2022-11-15T00:42:05;19.02;;;15.15;;
32319;SDS011;19080;51.750;5.888;2022-11-15T00:44:50;24.30;;;16.17;;
32319;SDS011;19080;51.750;5.888;2022-11-15T00:47:35;26.17;;;17.02;;
32319;SDS011;19080;51.750;5.888;2022-11-15T00:50:20;25.90;;;17.20;;
32319;SDS011;19080;51.750;5.888;2022-11-15T00:53:05;24.80;;;16.63;;
32319;SDS011;19080;51.750;5.888;2022-11-15T00:55:50;21.50;;;15.70;;
32319;SDS011;19080;51.750;5.888;2022-11-15T00:58:35;23.55;;;16.55;;
32319;SDS011;19080;51.750;5.888;2022-11-15T01:01:20;27.42;;;17.27;;
32319;SDS011;19080;51.750;5.888;2022-11-15T01:04:05;22.15;;;16.17;;
32319;SDS011;19080;51.750;5.888;2022-11-15T01:06:51;23.73;;;16.27;;
32319;SDS011;19080;51.750;5.888;2022-11-15T01:09:36;20.30;;;15.85;;
32319;SDS011;19080;51.750;5.888;2022-11-15T01:12:21;22.50;;;15.85;;
32319;SDS011;19080;51.750;5.888;2022-11-15T01:15:06;19.75;;;15.30;;
32319;SDS011;19080;51.750;5.888;2022-11-15T01:17:51;19.85;;;14.88;;
32319;SDS011;19080;51.750;5.888;2022-11-15T01:20:42;20.63;;;16.80;;
32319;SDS011;19080;51.750;5.888;2022-11-15T01:23:27;24.23;;;15.90;;
32319;SDS011;19080;51.750;5.888;2022-11-15T01:26:13;20.85;;;15.25;;
32319;SDS011;19080;51.750;5.888;2022-11-15T01:28:59;17.70;;;14.52;;
32319;SDS011;19080;51.750;5.888;2022-11-15T01:31:44;24.02;;;16.27;;
32319;SDS011;19080;51.750;5.888;2022-11-15T01:34:29;22.25;;;15.98;;
32319;SDS011;19080;51.750;5.888;2022-11-15T01:37:14;21.55;;;15.80;;
32319;SDS011;19080;51.750;5.888;2022-11-15T01:39:59;21.42;;;15.50;;
32319;SDS011;19080;51.750;5.888;2022-11-15T01:42:44;21.25;;;16.75;;
32319;SDS011;19080;51.750;5.888;2022-11-15T01:45:29;19.13;;;14.80;;
32319;SDS011;19080;51.750;5.888;2022-11-15T01:48:14;20.80;;;16.23;;
32319;SDS011;19080;51.750;5.888;2022-11-15T01:51:00;18.40;;;14.63;;
32319;SDS011;19080;51.750;5.888;2022-11-15T01:53:46;21.70;;;16.38;;
32319;SDS011;19080;51.750;5.888;2022-11-15T01:56:33;24.27;;;16.90;;
32319;SDS011;19080;51.750;5.888;2022-11-15T01:59:20;18.45;;;15.32;;
32319;SDS011;19080;51.750;5.888;2022-11-15T02:02:05;22.58;;;15.73;;
32319;SDS011;19080;51.750;5.888;2022-11-15T02:04:50;18.58;;;14.13;;
32319;SDS011;19080;51.750;5.888;2022-11-15T02:07:36;23.70;;;14.82;;
32319;SDS011;19080;51.750;5.888;2022-11-15T02:10:22;18.77;;;14.25;;
32319;SDS011;19080;51.750;5.888;2022-11-15T02:13:07;20.70;;;14.90;;
32319;SDS011;19080;51.750;5.888;2022-11-15T02:18:57;19.75;;;15.13;;
32319;SDS011;19080;51.750;5.888;2022-11-15T02:21:47;21.48;;;14.05;;
32319;SDS011;19080;51.750;5.888;2022-11-15T02:24:48;17.80;;;13.55;;
32319;SDS011;19080;51.750;5.888;2022-11-15T02:30:38;19.05;;;13.80;;
32319;SDS011;19080;51.750;5.888;2022-11-15T02:33:48;18.15;;;14.15;;
32319;SDS011;19080;51.750;5.888;2022-11-15T02:36:40;21.13;;;14.80;;
32319;SDS011;19080;51.750;5.888;2022-11-15T02:39:33;16.75;;;13.60;;
32319;SDS011;19080;51.750;5.888;2022-11-15T02:42:26;22.48;;;14.32;;
32319;SDS011;19080;51.750;5.888;2022-11-15T02:45:33;18.00;;;14.60;;
32319;SDS011;19080;51.750;5.888;2022-11-15T02:48:20;19.58;;;14.48;;
32319;SDS011;19080;51.750;5.888;2022-11-15T02:51:06;17.73;;;14.27;;
32319;SDS011;19080;51.750;5.888;2022-11-15T02:53:51;18.15;;;15.52;;
32319;SDS011;19080;51.750;5.888;2022-11-15T02:56:36;20.23;;;13.95;;
32319;SDS011;19080;51.750;5.888;2022-11-15T02:59:35;18.85;;;13.77;;
32319;SDS011;19080;51.750;5.888;2022-11-15T03:05:18;19.40;;;15.27;;
32319;SDS011;19080;51.750;5.888;2022-11-15T03:13:44;19.73;;;14.93;;
32319;SDS011;19080;51.750;5.888;2022-11-15T03:16:36;19.08;;;14.50;;
32319;SDS011;19080;51.750;5.888;2022-11-15T03:22:10;17.58;;;13.77;;
32319;SDS011;19080;51.750;5.888;2022-11-15T03:24:57;18.35;;;14.55;;
32319;SDS011;19080;51.750;5.888;2022-11-15T03:27:44;17.45;;;14.15;;
32319;SDS011;19080;51.750;5.888;2022-11-15T03:30:31;17.38;;;14.18;;
32319;SDS011;19080;51.750;5.888;2022-11-15T03:33:17;19.20;;;13.68;;
32319;SDS011;19080;51.750;5.888;2022-11-15T03:36:03;18.83;;;15.43;;
32319;SDS011;19080;51.750;5.888;2022-11-15T03:38:49;17.65;;;13.35;;
32319;SDS011;19080;51.750;5.888;2022-11-15T03:41:47;18.75;;;13.93;;
32319;SDS011;19080;51.750;5.888;2022-11-15T03:47:24;17.90;;;14.55;;
32319;SDS011;19080;51.750;5.888;2022-11-15T03:50:13;15.90;;;13.48;;
32319;SDS011;19080;51.750;5.888;2022-11-15T03:52:58;17.98;;;14.52;;
32319;SDS011;19080;51.750;5.888;2022-11-15T03:55:44;18.50;;;13.60;;
32319;SDS011;19080;51.750;5.888;2022-11-15T03:58:29;21.48;;;15.73;;
32319;SDS011;19080;51.750;5.888;2022-11-15T04:01:14;17.77;;;14.73;;
32319;SDS011;19080;51.750;5.888;2022-11-15T04:03:59;16.38;;;12.77;;
32319;SDS011;19080;51.750;5.888;2022-11-15T04:06:44;19.35;;;13.82;;
32319;SDS011;19080;51.750;5.888;2022-11-15T04:09:29;15.05;;;13.18;;
32319;SDS011;19080;51.750;5.888;2022-11-15T04:12:14;19.92;;;13.88;;
32319;SDS011;19080;51.750;5.888;2022-11-15T04:15:16;18.55;;;13.73;;
32319;SDS011;19080;51.750;5.888;2022-11-15T04:18:02;16.88;;;13.57;;
32319;SDS011;19080;51.750;5.888;2022-11-15T04:20:47;19.90;;;13.75;;
32319;SDS011;19080;51.750;5.888;2022-11-15T04:23:50;18.73;;;15.65;;
32319;SDS011;19080;51.750;5.888;2022-11-15T04:26:54;18.95;;;14.63;;
32319;SDS011;19080;51.750;5.888;2022-11-15T04:29:39;16.40;;;14.30;;
32319;SDS011;19080;51.750;5.888;2022-11-15T04:32:25;19.92;;;14.55;;
32319;SDS011;19080;51.750;5.888;2022-11-15T04:35:09;19.42;;;13.70;;
32319;SDS011;19080;51.750;5.888;2022-11-15T04:37:55;15.85;;;14.15;;
32319;SDS011;19080;51.750;5.888;2022-11-15T04:40:40;18.40;;;13.75;;
32319;SDS011;19080;51.750;5.888;2022-11-15T04:43:25;17.63;;;14.95;;
32319;SDS011;19080;51.750;5.888;2022-11-15T04:46:10;17.85;;;14.52;;
32319;SDS011;19080;51.750;5.888;2022-11-15T04:48:55;20.95;;;14.85;;
32319;SDS011;19080;51.750;5.888;2022-11-15T04:51:43;18.80;;;14.50;;
32319;SDS011;19080;51.750;5.888;2022-11-15T04:54:28;22.65;;;15.75;;
32319;SDS011;19080;51.750;5.888;2022-11-15T04:57:13;16.88;;;14.00;;
32319;SDS011;19080;51.750;5.888;2022-11-15T04:59:58;17.77;;;14.32;;
32319;SDS011;19080;51.750;5.888;2022-11-15T05:02:43;15.60;;;13.38;;
32319;SDS011;19080;51.750;5.888;2022-11-15T05:05:47;17.58;;;14.60;;
32319;SDS011;19080;51.750;5.888;2022-11-15T05:08:32;20.95;;;14.25;;
32319;SDS011;19080;51.750;5.888;2022-11-15T05:11:17;20.35;;;14.50;;
32319;SDS011;19080;51.750;5.888;2022-11-15T05:14:02;17.38;;;14.13;;
32319;SDS011;19080;51.750;5.888;2022-11-15T05:16:47;23.13;;;16.05;;
32319;SDS011;19080;51.750;5.888;2022-11-15T05:19:32;19.13;;;14.35;;
32319;SDS011;19080;51.750;5.888;2022-11-15T05:22:17;17.85;;;13.82;;
32319;SDS011;19080;51.750;5.888;2022-11-15T05:25:02;19.35;;;13.88;;
32319;SDS011;19080;51.750;5.888;2022-11-15T05:27:48;18.23;;;14.38;;
32319;SDS011;19080;51.750;5.888;2022-11-15T05:30:32;18.48;;;14.18;;
32319;SDS011;19080;51.750;5.888;2022-11-15T05:33:18;20.48;;;15.50;;
32319;SDS011;19080;51.750;5.888;2022-11-15T05:36:10;16.77;;;13.70;;
32319;SDS011;19080;51.750;5.888;2022-11-15T05:38:57;15.25;;;12.77;;
32319;SDS011;19080;51.750;5.888;2022-11-15T05:41:49;19.13;;;14.20;;
32319;SDS011;19080;51.750;5.888;2022-11-15T05:44:36;16.52;;;13.43;;
32319;SDS011;19080;51.750;5.888;2022-11-15T05:47:24;17.80;;;13.35;;
32319;SDS011;19080;51.750;5.888;2022-11-15T05:50:11;15.02;;;12.55;;
32319;SDS011;19080;51.750;5.888;2022-11-15T05:52:57;16.45;;;14.23;;
32319;SDS011;19080;51.750;5.888;2022-11-15T05:55:48;16.02;;;12.73;;
32319;SDS011;19080;51.750;5.888;2022-11-15T05:58:33;17.30;;;12.65;;
32319;SDS011;19080;51.750;5.888;2022-11-15T06:01:18;18.27;;;13.18;;
32319;SDS011;19080;51.750;5.888;2022-11-15T06:04:03;20.88;;;14.70;;
32319;SDS011;19080;51.750;5.888;2022-11-15T06:06:48;15.65;;;14.05;;
32319;SDS011;19080;51.750;5.888;2022-11-15T06:09:34;16.77;;;13.20;;
32319;SDS011;19080;51.750;5.888;2022-11-15T06:12:20;16.67;;;12.63;;
32319;SDS011;19080;51.750;5.888;2022-11-15T06:15:05;19.60;;;13.75;;
32319;SDS011;19080;51.750;5.888;2022-11-15T06:17:50;16.73;;;13.38;;
32319;SDS011;19080;51.750;5.888;2022-11-15T06:20:35;14.82;;;12.32;;
32319;SDS011;19080;51.750;5.888;2022-11-15T06:23:20;16.80;;;13.65;;
32319;SDS011;19080;51.750;5.888;2022-11-15T06:26:05;15.38;;;13.07;;
32319;SDS011;19080;51.750;5.888;2022-11-15T06:28:50;15.48;;;13.52;;
32319;SDS011;19080;51.750;5.888;2022-11-15T06:31:35;21.77;;;14.60;;
32319;SDS011;19080;51.750;5.888;2022-11-15T06:34:20;14.52;;;13.00;;
32319;SDS011;19080;51.750;5.888;2022-11-15T06:37:05;16.77;;;13.65;;
32319;SDS011;19080;51.750;5.888;2022-11-15T06:39:50;15.63;;;13.15;;
32319;SDS011;19080;51.750;5.888;2022-11-15T06:42:35;16.60;;;13.70;;
32319;SDS011;19080;51.750;5.888;2022-11-15T06:45:21;16.15;;;13.82;;
32319;SDS011;19080;51.750;5.888;2022-11-15T06:48:06;18.50;;;14.05;;
32319;SDS011;19080;51.750;5.888;2022-11-15T06:50:55;17.10;;;13.38;;
32319;SDS011;19080;51.750;5.888;2022-11-15T06:53:40;16.25;;;12.98;;
32319;SDS011;19080;51.750;5.888;2022-11-15T06:56:25;15.88;;;12.30;;
32319;SDS011;19080;51.750;5.888;2022-11-15T06:59:10;15.45;;;13.60;;
32319;SDS011;19080;51.750;5.888;2022-11-15T07:01:55;16.58;;;12.70;;
32319;SDS011;19080;51.750;5.888;2022-11-15T07:04:41;14.18;;;11.50;;
32319;SDS011;19080;51.750;5.888;2022-11-15T07:07:25;15.95;;;12.90;;
32319;SDS011;19080;51.750;5.888;2022-11-15T07:10:12;13.63;;;11.43;;
32319;SDS011;19080;51.750;5.888;2022-11-15T07:12:56;14.45;;;11.13;;
32319;SDS011;19080;51.750;5.888;2022-11-15T07:15:42;15.00;;;11.65;;
32319;SDS011;19080;51.750;5.888;2022-11-15T07:18:27;16.35;;;11.90;;
32319;SDS011;19080;51.750;5.888;2022-11-15T07:21:12;13.73;;;11.32;;
32319;SDS011;19080;51.750;5.888;2022-11-15T07:23:57;17.58;;;11.75;;
32319;SDS011;19080;51.750;5.888;2022-11-15T07:26:42;15.52;;;11.95;;
32319;SDS011;19080;51.750;5.888;2022-11-15T07:29:28;13.35;;;11.23;;
32319;SDS011;19080;51.750;5.888;2022-11-15T07:32:13;13.35;;;11.40;;
32319;SDS011;19080;51.750;5.888;2022-11-15T07:34:59;11.95;;;10.18;;
32319;SDS011;19080;51.750;5.888;2022-11-15T07:37:44;12.65;;;11.27;;
32319;SDS011;19080;51.750;5.888;2022-11-15T07:40:29;13.32;;;11.20;;
32319;SDS011;19080;51.750;5.888;2022-11-15T07:43:15;14.88;;;10.82;;
32319;SDS011;19080;51.750;5.888;2022-11-15T07:46:04;13.90;;;10.32;;
32319;SDS011;19080;51.750;5.888;2022-11-15T07:48:49;13.70;;;10.93;;
32319;SDS011;19080;51.750;5.888;2022-11-15T07:51:34;13.27;;;10.05;;
32319;SDS011;19080;51.750;5.888;2022-11-15T07:54:19;11.77;;;10.55;;
32319;SDS011;19080;51.750;5.888;2022-11-15T07:57:04;12.10;;;10.43;;
32319;SDS011;19080;51.750;5.888;2022-11-15T07:59:52;11.90;;;9.88;;
32319;SDS011;19080;51.750;5.888;2022-11-15T08:02:37;13.55;;;10.32;;
32319;SDS011;19080;51.750;5.888;2022-11-15T08:05:22;12.57;;;9.23;;
32319;SDS011;19080;51.750;5.888;2022-11-15T08:08:07;10.27;;;9.23;;
32319;SDS011;19080;51.750;5.888;2022-11-15T08:10:52;9.98;;;8.45;;
32319;SDS011;19080;51.750;5.888;2022-11-15T08:13:37;10.50;;;8.65;;
32319;SDS011;19080;51.750;5.888;2022-11-15T08:16:23;9.93;;;8.35;;
32319;SDS011;19080;51.750;5.888;2022-11-15T08:19:08;9.73;;;7.72;;
32319;SDS011;19080;51.750;5.888;2022-11-15T08:21:53;12.60;;;8.10;;
32319;SDS011;19080;51.750;5.888;2022-11-15T08:24:38;10.10;;;7.88;;
32319;SDS011;19080;51.750;5.888;2022-11-15T08:27:23;8.63;;;7.72;;
32319;SDS011;19080;51.750;5.888;2022-11-15T08:30:08;10.30;;;7.90;;
32319;SDS011;19080;51.750;5.888;2022-11-15T08:32:53;9.13;;;7.63;;
32319;SDS011;19080;51.750;5.888;2022-11-15T08:35:40;9.32;;;7.78;;
32319;SDS011;19080;51.750;5.888;2022-11-15T08:38:26;14.43;;;7.93;;
32319;SDS011;19080;51.750;5.888;2022-11-15T08:41:16;9.35;;;7.57;;
32319;SDS011;19080;51.750;5.888;2022-11-15T08:44:03;11.55;;;8.05;;
32319;SDS011;19080;51.750;5.888;2022-11-15T08:46:48;9.98;;;8.32;;
32319;SDS011;19080;51.750;5.888;2022-11-15T08:49:33;11.45;;;7.90;;
32319;SDS011;19080;51.750;5.888;2022-11-15T08:52:18;11.52;;;8.50;;
32319;SDS011;19080;51.750;5.888;2022-11-15T08:55:03;11.82;;;8.23;;
32319;SDS011;19080;51.750;5.888;2022-11-15T08:57:48;9.75;;;8.43;;
32319;SDS011;19080;51.750;5.888;2022-11-15T09:00:34;13.88;;;9.43;;
32319;SDS011;19080;51.750;5.888;2022-11-15T09:03:19;11.45;;;9.07;;
32319;SDS011;19080;51.750;5.888;2022-11-15T09:06:04;10.00;;;8.23;;
32319;SDS011;19080;51.750;5.888;2022-11-15T09:08:48;13.32;;;7.93;;
32319;SDS011;19080;51.750;5.888;2022-11-15T09:11:33;9.38;;;8.25;;
32319;SDS011;19080;51.750;5.888;2022-11-15T09:14:18;11.38;;;7.70;;
32319;SDS011;19080;51.750;5.888;2022-11-15T09:17:06;7.43;;;6.50;;
32319;SDS011;19080;51.750;5.888;2022-11-15T09:19:51;9.45;;;7.07;;
32319;SDS011;19080;51.750;5.888;2022-11-15T09:22:36;11.07;;;7.07;;
32319;SDS011;19080;51.750;5.888;2022-11-15T09:25:23;8.63;;;6.47;;
32319;SDS011;19080;51.750;5.888;2022-11-15T09:28:08;9.27;;;6.30;;
32319;SDS011;19080;51.750;5.888;2022-11-15T09:30:56;7.72;;;6.35;;
32319;SDS011;19080;51.750;5.888;2022-11-15T09:33:45;6.55;;;5.85;;
32319;SDS011;19080;51.750;5.888;2022-11-15T09:36:30;9.82;;;6.30;;
32319;SDS011;19080;51.750;5.888;2022-11-15T09:39:15;8.77;;;5.95;;
32319;SDS011;19080;51.750;5.888;2022-11-15T09:42:04;7.65;;;5.35;;
32319;SDS011;19080;51.750;5.888;2022-11-15T09:44:59;7.25;;;5.40;;
32319;SDS011;19080;51.750;5.888;2022-11-15T09:50:57;6.22;;;4.57;;
32319;SDS011;19080;51.750;5.888;2022-11-15T09:53:32;4.55;;;3.88;;
32319;SDS011;19080;51.750;5.888;2022-11-15T09:56:23;10.55;;;4.43;;
32319;SDS011;19080;51.750;5.888;2022-11-15T10:04:06;3.10;;;2.75;;
32319;SDS011;19080;51.750;5.888;2022-11-15T10:06:38;7.20;;;3.20;;
32319;SDS011;19080;51.750;5.888;2022-11-15T10:09:15;4.07;;;3.03;;
32319;SDS011;19080;51.750;5.888;2022-11-15T10:11:47;4.32;;;2.72;;
32319;SDS011;19080;51.750;5.888;2022-11-15T10:14:21;3.95;;;2.00;;
32319;SDS011;19080;51.750;5.888;2022-11-15T10:19:35;6.30;;;2.55;;
32319;SDS011;19080;51.750;5.888;2022-11-15T10:22:20;3.85;;;1.83;;
32319;SDS011;19080;51.750;5.888;2022-11-15T10:24:47;6.38;;;2.20;;
32319;SDS011;19080;51.750;5.888;2022-11-15T10:27:17;5.38;;;1.77;;
32319;SDS011;19080;51.750;5.888;2022-11-15T10:29:45;4.50;;;2.00;;
32319;SDS011;19080;51.750;5.888;2022-11-15T10:32:13;3.03;;;1.52;;
32319;SDS011;19080;51.750;5.888;2022-11-15T10:34:39;4.55;;;1.90;;
32319;SDS011;19080;51.750;5.888;2022-11-15T10:37:06;3.03;;;1.35;;
32319;SDS011;19080;51.750;5.888;2022-11-15T10:39:32;4.18;;;1.45;;
32319;SDS011;19080;51.750;5.888;2022-11-15T10:42:25;2.30;;;1.27;;
32319;SDS011;19080;51.750;5.888;2022-11-15T10:44:52;1.70;;;1.23;;
32319;SDS011;19080;51.750;5.888;2022-11-15T10:49:56;5.10;;;1.52;;
32319;SDS011;19080;51.750;5.888;2022-11-15T10:52:22;3.35;;;1.17;;
32319;SDS011;19080;51.750;5.888;2022-11-15T10:54:51;5.07;;;1.30;;
32319;SDS011;19080;51.750;5.888;2022-11-15T10:57:20;3.17;;;1.30;;
32319;SDS011;19080;51.750;5.888;2022-11-15T10:59:49;2.30;;;1.33;;
32319;SDS011;19080;51.750;5.888;2022-11-15T11:05:04;4.85;;;1.15;;
32319;SDS011;19080;51.750;5.888;2022-11-15T11:07:31;5.43;;;1.65;;
32319;SDS011;19080;51.750;5.888;2022-11-15T11:10:13;5.03;;;1.40;;
32319;SDS011;19080;51.750;5.888;2022-11-15T11:13:12;2.38;;;1.42;;
32319;SDS011;19080;51.750;5.888;2022-11-15T11:15:38;3.95;;;1.45;;
32319;SDS011;19080;51.750;5.888;2022-11-15T11:20:44;3.22;;;1.38;;
32319;SDS011;19080;51.750;5.888;2022-11-15T11:23:34;5.10;;;1.40;;
32319;SDS011;19080;51.750;5.888;2022-11-15T11:26:05;4.05;;;1.70;;
32319;SDS011;19080;51.750;5.888;2022-11-15T11:31:20;4.25;;;1.75;;
32319;SDS011;19080;51.750;5.888;2022-11-15T11:33:58;1.80;;;1.05;;
32319;SDS011;19080;51.750;5.888;2022-11-15T11:36:40;3.85;;;1.00;;
32319;SDS011;19080;51.750;5.888;2022-11-15T11:41:55;2.35;;;1.00;;
32319;SDS011;19080;51.750;5.888;2022-11-15T11:46:56;5.25;;;0.90;;
32319;SDS011;19080;51.750;5.888;2022-11-15T11:49:34;4.07;;;1.17;;
32319;SDS011;19080;51.750;5.888;2022-11-15T11:54:42;1.17;;;0.82;;
32319;SDS011;19080;51.750;5.888;2022-11-15T11:57:14;3.40;;;1.50;;
32319;SDS011;19080;51.750;5.888;2022-11-15T11:59:43;6.50;;;1.38;;
32319;SDS011;19080;51.750;5.888;2022-11-15T12:02:21;3.17;;;1.27;;
32319;SDS011;19080;51.750;5.888;2022-11-15T12:04:51;2.92;;;0.95;;
32319;SDS011;19080;51.750;5.888;2022-11-15T12:07:25;3.78;;;1.35;;
32319;SDS011;19080;51.750;5.888;2022-11-15T12:15:15;1.92;;;0.98;;
32319;SDS011;19080;51.750;5.888;2022-11-15T12:17:42;2.60;;;1.50;;
32319;SDS011;19080;51.750;5.888;2022-11-15T12:20:23;5.95;;;2.00;;
32319;SDS011;19080;51.750;5.888;2022-11-15T12:22:54;1.60;;;1.20;;
32319;SDS011;19080;51.750;5.888;2022-11-15T12:25:25;2.15;;;0.93;;
32319;SDS011;19080;51.750;5.888;2022-11-15T12:27:57;2.92;;;1.30;;
32319;SDS011;19080;51.750;5.888;2022-11-15T12:30:38;2.00;;;0.77;;
32319;SDS011;19080;51.750;5.888;2022-11-15T12:33:15;2.97;;;0.93;;
32319;SDS011;19080;51.750;5.888;2022-11-15T12:36:02;0.93;;;0.80;;
32319;SDS011;19080;51.750;5.888;2022-11-15T12:39:12;1.63;;;0.70;;
32319;SDS011;19080;51.750;5.888;2022-11-15T12:41:23;2.67;;;1.08;;
32319;SDS011;19080;51.750;5.888;2022-11-15T12:43:49;2.65;;;0.85;;
32319;SDS011;19080;51.750;5.888;2022-11-15T12:48:56;3.22;;;1.20;;
32319;SDS011;19080;51.750;5.888;2022-11-15T12:59:47;1.95;;;0.70;;
32319;SDS011;19080;51.750;5.888;2022-11-15T13:02:17;2.63;;;1.02;;
32319;SDS011;19080;51.750;5.888;2022-11-15T13:04:44;4.97;;;0.90;;
32319;SDS011;19080;51.750;5.888;2022-11-15T13:07:54;3.90;;;1.10;;
32319;SDS011;19080;51.750;5.888;2022-11-15T13:09:57;4.75;;;1.52;;
32319;SDS011;19080;51.750;5.888;2022-11-15T13:14:56;3.42;;;1.17;;
32319;SDS011;19080;51.750;5.888;2022-11-15T13:17:27;3.55;;;1.00;;
32319;SDS011;19080;51.750;5.888;2022-11-15T13:20:02;4.50;;;1.27;;
32319;SDS011;19080;51.750;5.888;2022-11-15T13:22:41;3.83;;;1.33;;
32319;SDS011;19080;51.750;5.888;2022-11-15T13:27:58;1.83;;;0.77;;
32319;SDS011;19080;51.750;5.888;2022-11-15T13:30:32;6.03;;;0.90;;
32319;SDS011;19080;51.750;5.888;2022-11-15T13:32:58;2.83;;;0.75;;
32319;SDS011;19080;51.750;5.888;2022-11-15T13:35:27;3.25;;;1.00;;
32319;SDS011;19080;51.750;5.888;2022-11-15T13:37:54;3.15;;;1.00;;
32319;SDS011;19080;51.750;5.888;2022-11-15T13:40:28;6.43;;;1.85;;
32319;SDS011;19080;51.750;5.888;2022-11-15T13:42:56;3.25;;;1.00;;
32319;SDS011;19080;51.750;5.888;2022-11-15T13:45:23;4.35;;;1.33;;
32319;SDS011;19080;51.750;5.888;2022-11-15T13:47:51;1.85;;;0.80;;
32319;SDS011;19080;51.750;5.888;2022-11-15T13:50:17;2.50;;;0.90;;
32319;SDS011;19080;51.750;5.888;2022-11-15T13:52:46;2.97;;;1.00;;
32319;SDS011;19080;51.750;5.888;2022-11-15T13:55:16;2.63;;;1.00;;
32319;SDS011;19080;51.750;5.888;2022-11-15T13:57:51;4.80;;;2.03;;
32319;SDS011;19080;51.750;5.888;2022-11-15T14:00:41;5.30;;;2.10;;
32319;SDS011;19080;51.750;5.888;2022-11-15T14:03:08;2.50;;;1.10;;
32319;SDS011;19080;51.750;5.888;2022-11-15T14:05:40;3.00;;;1.15;;
32319;SDS011;19080;51.750;5.888;2022-11-15T14:08:21;3.33;;;0.98;;
32319;SDS011;19080;51.750;5.888;2022-11-15T14:10:48;3.75;;;0.77;;
32319;SDS011;19080;51.750;5.888;2022-11-15T14:13:31;2.25;;;0.98;;
32319;SDS011;19080;51.750;5.888;2022-11-15T14:16:14;3.40;;;0.85;;
32319;SDS011;19080;51.750;5.888;2022-11-15T14:18:50;4.55;;;0.88;;
32319;SDS011;19080;51.750;5.888;2022-11-15T14:21:17;2.65;;;0.80;;
32319;SDS011;19080;51.750;5.888;2022-11-15T14:23:45;1.90;;;0.80;;
32319;SDS011;19080;51.750;5.888;2022-11-15T14:28:53;1.73;;;0.80;;
32319;SDS011;19080;51.750;5.888;2022-11-15T14:31:19;2.42;;;0.75;;
32319;SDS011;19080;51.750;5.888;2022-11-15T14:33:47;1.30;;;0.77;;
32319;SDS011;19080;51.750;5.888;2022-11-15T14:36:20;3.83;;;1.27;;
32319;SDS011;19080;51.750;5.888;2022-11-15T14:38:47;1.63;;;1.20;;
32319;SDS011;19080;51.750;5.888;2022-11-15T14:43:40;2.13;;;0.90;;
32319;SDS011;19080;51.750;5.888;2022-11-15T14:46:06;3.53;;;1.13;;
32319;SDS011;19080;51.750;5.888;2022-11-15T14:48:32;5.15;;;1.55;;
32319;SDS011;19080;51.750;5.888;2022-11-15T14:50:59;3.78;;;1.25;;
32319;SDS011;19080;51.750;5.888;2022-11-15T14:53:26;4.00;;;1.50;;
32319;SDS011;19080;51.750;5.888;2022-11-15T14:55:52;5.53;;;1.70;;
32319;SDS011;19080;51.750;5.888;2022-11-15T14:58:19;3.38;;;1.63;;
32319;SDS011;19080;51.750;5.888;2022-11-15T15:00:45;3.50;;;1.10;;
32319;SDS011;19080;51.750;5.888;2022-11-15T15:03:12;3.40;;;1.00;;
32319;SDS011;19080;51.750;5.888;2022-11-15T15:05:40;3.20;;;1.50;;
32319;SDS011;19080;51.750;5.888;2022-11-15T15:08:06;5.25;;;1.20;;
32319;SDS011;19080;51.750;5.888;2022-11-15T15:10:35;2.95;;;1.10;;
32319;SDS011;19080;51.750;5.888;2022-11-15T15:13:10;4.50;;;2.10;;
32319;SDS011;19080;51.750;5.888;2022-11-15T15:15:38;7.85;;;4.45;;
32319;SDS011;19080;51.750;5.888;2022-11-15T15:18:05;4.28;;;2.70;;
32319;SDS011;19080;51.750;5.888;2022-11-15T15:20:32;6.45;;;3.20;;
32319;SDS011;19080;51.750;5.888;2022-11-15T15:22:58;3.25;;;1.23;;
32319;SDS011;19080;51.750;5.888;2022-11-15T15:25:34;7.38;;;1.73;;
32319;SDS011;19080;51.750;5.888;2022-11-15T15:28:01;7.72;;;1.98;;
32319;SDS011;19080;51.750;5.888;2022-11-15T15:30:29;9.10;;;3.55;;
32319;SDS011;19080;51.750;5.888;2022-11-15T15:32:55;16.58;;;7.32;;
32319;SDS011;19080;51.750;5.888;2022-11-15T15:35:22;6.97;;;3.30;;
32319;SDS011;19080;51.750;5.888;2022-11-15T15:37:49;11.38;;;5.38;;
32319;SDS011;19080;51.750;5.888;2022-11-15T15:40:17;7.10;;;2.10;;
32319;SDS011;19080;51.750;5.888;2022-11-15T15:42:43;2.33;;;1.20;;
32319;SDS011;19080;51.750;5.888;2022-11-15T15:45:11;4.00;;;1.35;;
32319;SDS011;19080;51.750;5.888;2022-11-15T15:47:38;5.38;;;2.00;;
32319;SDS011;19080;51.750;5.888;2022-11-15T15:50:12;5.63;;;1.77;;
32319;SDS011;19080;51.750;5.888;2022-11-15T15:52:40;8.98;;;3.00;;
32319;SDS011;19080;51.750;5.888;2022-11-15T15:55:07;2.70;;;1.77;;
32319;SDS011;19080;51.750;5.888;2022-11-15T15:57:33;6.05;;;1.80;;
32319;SDS011;19080;51.750;5.888;2022-11-15T16:00:00;4.15;;;1.77;;
32319;SDS011;19080;51.750;5.888;2022-11-15T16:02:26;3.47;;;1.75;;
32319;SDS011;19080;51.750;5.888;2022-11-15T16:04:52;5.13;;;1.75;;
32319;SDS011;19080;51.750;5.888;2022-11-15T16:07:21;5.88;;;1.88;;
32319;SDS011;19080;51.750;5.888;2022-11-15T16:09:48;5.05;;;2.20;;
32319;SDS011;19080;51.750;5.888;2022-11-15T16:12:27;7.70;;;2.53;;
32319;SDS011;19080;51.750;5.888;2022-11-15T16:14:54;8.30;;;2.28;;
32319;SDS011;19080;51.750;5.888;2022-11-15T16:17:22;6.28;;;2.60;;
32319;SDS011;19080;51.750;5.888;2022-11-15T16:19:49;7.95;;;2.05;;
32319;SDS011;19080;51.750;5.888;2022-11-15T16:22:15;6.60;;;2.45;;
32319;SDS011;19080;51.750;5.888;2022-11-15T16:24:41;5.78;;;2.25;;
32319;SDS011;19080;51.750;5.888;2022-11-15T16:27:26;4.95;;;2.33;;
32319;SDS011;19080;51.750;5.888;2022-11-15T16:29:52;3.55;;;2.08;;
32319;SDS011;19080;51.750;5.888;2022-11-15T16:32:19;7.75;;;6.95;;
32319;SDS011;19080;51.750;5.888;2022-11-15T16:34:45;4.68;;;2.53;;
32319;SDS011;19080;51.750;5.888;2022-11-15T16:37:21;3.50;;;2.42;;
32319;SDS011;19080;51.750;5.888;2022-11-15T16:39:48;7.57;;;3.25;;
32319;SDS011;19080;51.750;5.888;2022-11-15T16:42:14;10.45;;;4.78;;
32319;SDS011;19080;51.750;5.888;2022-11-15T16:44:41;16.98;;;8.02;;
32319;SDS011;19080;51.750;5.888;2022-11-15T16:47:17;7.15;;;2.92;;
32319;SDS011;19080;51.750;5.888;2022-11-15T16:49:44;4.68;;;2.33;;
32319;SDS011;19080;51.750;5.888;2022-11-15T16:52:11;5.93;;;3.67;;
32319;SDS011;19080;51.750;5.888;2022-11-15T16:54:40;12.43;;;5.75;;
32319;SDS011;19080;51.750;5.888;2022-11-15T16:57:07;7.82;;;3.55;;
32319;SDS011;19080;51.750;5.888;2022-11-15T16:59:35;3.65;;;2.60;;
32319;SDS011;19080;51.750;5.888;2022-11-15T17:02:04;2.92;;;2.47;;
32319;SDS011;19080;51.750;5.888;2022-11-15T17:04:31;2.88;;;2.22;;